Skegness, United Kingdom
Current Conditions -  °F | °C
As of 5:50 PM on Thursday 29 Jan 2015 (Local Time) from EGXC Reporting Station
Scattered Clouds Scattered Clouds  
Wind Chill: 26°   Ceiling: Unl
Heat Index: 34°   Visibility: 6mi
Dew Point: 30°   Wind: 10mph
Humidity: 87%   Direction: 280°W
Pressure: 28.76"   Gusts: NA
Location:  53.14°N, 0.34°E
Report Text: EGXC 291750Z 28009KT 9999 FEW020 SCT070 01/M01 Q0974 BLU
Loading
Personal Weather Stations






























Interactive Weather Map New forecast layout! Learn more

10-Day Weather Forecast

Advertisements
Track Severe Weather on mobile